Nearby METAR Reports

 

KRYN - Tucson/Ryan Fld, Arizona, USA
Distance from station: SSW 16mi, 26km
Updated: Tue, 27-Oct-2020 1:45pm MST
Mostly cloudy
Mostly cloudy
 Wind from N
Wind: N 7 mph , 11 km/h
Temperature: 59°F , 15°C
Dew Point: 30°F , -1°C
Humidity: 34%
Barometer: 30.02 inHg , 1016.6 hPa
Clouds: Mostly cloudy
Visibility: 10 miles , 16 km
Cloud details: Mostly cloudy 5000 ft
2020/10/27 20:45 KRYN 272045Z 35006KT 10SM BKN050 15/M01 A3002
KTUS - Tucson, Arizona, USA
Distance from station: SSE 18mi, 28km
Updated: Tue, 27-Oct-2020 1:53pm MST
Mostly cloudy
Mostly cloudy
 Wind from varies
Wind: varies 5 mph , 7 km/h
Temperature: 54°F , 12°C
Dew Point: 27°F , -3°C
Humidity: 35%
Barometer: 30.01 inHg , 1016.3 hPa
Clouds: Mostly cloudy
Visibility: 10 miles , 16 km
Cloud details: Mostly cloudy 5000 ft
2020/10/27 20:53 KTUS 272053Z VRB04KT 10SM BKN050 12/M03 A3001 RMK AO2 SLP152 T01171028 58008
 
KDMA - Davis/Tucson, Arizona, USA
Distance from station: SE 18mi, 29km
Updated: Tue, 27-Oct-2020 1:58pm MST
Few Clouds
Few Clouds
 Wind from NE
Wind: NE 6 mph , 9 km/h
Temperature: 54°F , 12°C
Dew Point: 27°F , -3°C
Humidity: 35%
Barometer: 29.99 inHg , 1015.6 hPa
Clouds: Few Clouds
Visibility: 10 miles , 16 km
Cloud details: Few Clouds 14000 ft
2020/10/27 20:58 KDMA 272058Z AUTO 04005KT 10SM FEW140 12/M03 A2999 RMK AO2 SLP149 T01201030 58009 FZRANO $
KCGZ - Casa Granda, Arizona, USA
Distance from station: NW 57mi, 92km
Updated: Tue, 27-Oct-2020 1:56pm MST
Clear
Clear
 Wind from E
Wind: E 7 mph , 11 km/h
Temperature: 61°F , 16°C
Dew Point: 25°F , -4°C
Humidity: 25%
Barometer: 30.01 inHg , 1016.3 hPa
Clouds: Clear
Visibility: 10 miles , 16 km
2020/10/27 20:56 KCGZ 272056Z AUTO 09006KT 10SM CLR 16/M04 A3001 RMK AO2 SLP161 T01561039 58015
 
KALK - Pioneer Airfield, Arizona, USA
Distance from station: SE 65mi, 104km
Updated: Tue, 27-Oct-2020 1:56pm MST
Few Clouds
Few Clouds
 Wind from varies
Wind: varies 3 mph , 6 km/h
Temperature: 46°F , 8°C
Dew Point: 23°F , -5°C
Humidity: 40%
Barometer: 30.00 inHg , 1015.9 hPa
Clouds: Few Clouds
Visibility: 10 miles , 16 km
Cloud details: Few Clouds 4500 ft
2020/10/27 20:56 KALK 272056Z AUTO VRB03KT 10SM FEW045 08/M05 A3000 RMK AO2 SLP127 60000 T00781050 50000
KOLS - Nogales, Arizona, USA
Distance from station: S 67mi, 108km
Updated: Tue, 27-Oct-2020 1:54pm MST
Clear
Clear
 Wind from NW
Wind: NW 9 mph , 15 km/h
Temperature: 55°F , 13°C
Dew Point: 21°F , -6°C
Humidity: 26%
Barometer: 29.97 inHg , 1014.9 hPa
Clouds: Clear
Visibility: 10 miles , 16 km
2020/10/27 20:54 KOLS 272054Z AUTO 32008KT 290V360 10SM CLR 13/M06 A2997 RMK AO2 SLP130 T01281061 58006
 
KFHU - Fort Huachuca, Arizona, USA
Distance from station: SE 69mi, 110km
Updated: Tue, 27-Oct-2020 1:58pm MST
Clear
Clear
 Wind from N
Wind: N 9 mph , 15 km/h
Temperature: 46°F , 8°C
Wind Chill: 41°F , 5°C
Dew Point: 23°F , -5°C
Humidity: 40%
Barometer: 30.00 inHg , 1015.9 hPa
Clouds: Clear
Visibility: 10 miles , 16 km
2020/10/27 20:58 KFHU 272058Z AUTO 35008KT 10SM CLR 08/M05 A3000 RMK AO2 SLP146 T00781051 50000
KIWA - Chandler/Mesa, Arizona, USA
Distance from station: NNW 73mi, 117km
Updated: Tue, 27-Oct-2020 1:50pm MST
Few Clouds
Few Clouds
 Wind from varies
Wind: varies 5 mph , 7 km/h
Temperature: 63°F , 17°C
Dew Point: 23°F , -5°C
Humidity: 22%
Barometer: 30.00 inHg , 1015.9 hPa
Clouds: Few Clouds
Visibility: 10 miles , 16 km
Cloud details: Few Clouds 14000 ft
2020/10/27 20:50 KIWA 272050Z VRB04KT 10SM FEW140 17/M05 A3000